Time;durP1;ratioP1;P1;durP2;ratioP2;P2;SDS_P1;SDS_P2;PMS_P1;PMS_P2;Temp;Humidity;BMP_temperature;BMP_pressure;BME280_temperature;BME280_humidity;BME280_pressure;Samples;Min_cycle;Max_cycle;Signal;HPM_P1;HPM_P2
2021/12/31 00:10:19;;;;;;;;;;;11.40;99.90;;;;;;4946036;29;20286;-86
2021/12/31 00:12:45;;;;;;;;;;;12.60;99.90;;;;;;4927918;29;19923;-88
2021/12/31 00:15:11;;;;;;;;;;;11.40;99.90;;;;;;4926996;29;19978;-86
2021/12/31 00:17:38;;;;;;;;;;;11.40;99.90;;;;;;4925096;29;19926;-88
2021/12/31 00:20:08;;;;;;;;;;;11.40;99.90;;;;;;4940474;29;20027;-91
2021/12/31 00:23:27;;;;;;;;;;;11.40;99.90;;;;;;4937679;29;19918;-87
2021/12/31 00:31:03;;;;;;;;;;;11.50;99.90;;;;;;5200895;23;19923;-89
2021/12/31 00:33:29;;;;;;;;;;;11.50;99.90;;;;;;4920210;29;19926;-88
2021/12/31 00:35:54;;;;;;;;;;;11.50;99.90;;;;;;4919955;29;19922;-89
2021/12/31 00:38:20;;;;;;;;;;;11.40;99.90;;;;;;4918122;29;20406;-89
2021/12/31 00:40:48;;;;;;;;;;;11.40;99.90;;;;;;4916137;29;19935;-88
2021/12/31 00:43:14;;;;;;;;;;;11.40;99.90;;;;;;4918826;29;19970;-91
2021/12/31 00:48:15;;;;;;;;;;;11.40;99.90;;;;;;5320820;23;19937;-90
2021/12/31 00:50:41;;;;;;;;;;;11.50;99.90;;;;;;4904148;29;19927;-90
2021/12/31 00:53:07;;;;;;;;;;;11.60;99.90;;;;;;4907039;29;19930;-87
2021/12/31 00:55:32;;;;;;;;;;;11.50;99.90;;;;;;4910673;29;19923;-89
2021/12/31 00:57:58;;;;;;;;;;;11.50;99.90;;;;;;4911907;29;19930;-87
2021/12/31 01:00:25;;;;;;;;;;;11.50;99.90;;;;;;4910309;29;19926;-90
2021/12/31 01:02:51;;;;;;;;;;;11.60;99.90;;;;;;4901297;29;19919;-89
2021/12/31 01:21:26;;;;;;;;;;;11.90;99.90;;;;;;4935906;29;19917;-86
2021/12/31 01:23:51;;;;;;;;;;;11.50;99.90;;;;;;4918293;29;19922;-90
2021/12/31 01:26:17;;;;;;;;;;;11.60;99.90;;;;;;4918927;29;19973;-88
2021/12/31 01:28:43;;;;;;;;;;;11.50;99.90;;;;;;4918869;29;19923;-89
2021/12/31 01:31:08;;;;;;;;;;;11.80;99.90;;;;;;4918687;29;19933;-87
2021/12/31 01:33:34;;;;;;;;;;;11.60;99.90;;;;;;4918464;29;19926;-86
2021/12/31 01:36:00;;;;;;;;;;;11.60;99.90;;;;;;4919423;29;20330;-87
2021/12/31 01:38:25;;;;;;;;;;;11.60;99.90;;;;;;4918002;29;20419;-87
2021/12/31 01:40:51;;;;;;;;;;;12.10;99.90;;;;;;4918240;29;19923;-86
2021/12/31 01:43:18;;;;;;;;;;;11.50;99.90;;;;;;4918533;29;19978;-85
2021/12/31 01:45:46;;;;;;;;;;;11.50;99.90;;;;;;4920692;29;19945;-87
2021/12/31 01:48:28;;;;;;;;;;;11.60;99.90;;;;;;4924151;29;20410;-86
2021/12/31 01:50:54;;;;;;;;;;;11.60;99.90;;;;;;4916456;29;19923;-86
2021/12/31 01:53:22;;;;;;;;;;;11.60;99.90;;;;;;4917678;29;19930;-86
2021/12/31 01:55:49;;;;;;;;;;;11.60;99.90;;;;;;4919188;29;19923;-85
2021/12/31 01:58:19;;;;;;;;;;;11.60;99.90;;;;;;4918423;29;19923;-85
2021/12/31 02:00:44;;;;;;;;;;;11.70;99.90;;;;;;4917921;29;20276;-86
2021/12/31 02:03:10;;;;;;;;;;;11.70;99.90;;;;;;4918558;29;19943;-88
2021/12/31 02:05:38;;;;;;;;;;;11.70;99.90;;;;;;4920461;29;20425;-87
2021/12/31 02:08:04;;;;;;;;;;;11.70;99.90;;;;;;4935240;29;20270;-87
2021/12/31 02:10:29;;;;;;;;;;;11.80;99.90;;;;;;4917497;29;19925;-85
2021/12/31 02:12:55;;;;;;;;;;;11.80;99.90;;;;;;4935097;29;19923;-87
2021/12/31 02:15:21;;;;;;;;;;;11.70;99.90;;;;;;4934970;29;19930;-86
2021/12/31 02:17:48;;;;;;;;;;;11.80;99.90;;;;;;4917679;29;19923;-85
2021/12/31 02:20:14;;;;;;;;;;;11.80;99.90;;;;;;4916702;29;20873;-84
2021/12/31 02:22:49;;;;;;;;;;;11.80;99.90;;;;;;4917794;29;20382;-88
2021/12/31 02:25:15;;;;;;;;;;;11.90;99.90;;;;;;4917608;29;19922;-86
2021/12/31 02:27:40;;;;;;;;;;;11.70;99.90;;;;;;4934342;29;20622;-85
2021/12/31 02:30:07;;;;;;;;;;;11.90;99.90;;;;;;4918564;29;19927;-85
2021/12/31 02:32:33;;;;;;;;;;;11.90;99.90;;;;;;4913294;29;19930;-88
2021/12/31 02:34:58;;;;;;;;;;;11.90;99.90;;;;;;4917168;29;19930;-85
2021/12/31 02:37:24;;;;;;;;;;;11.90;99.90;;;;;;4917888;29;19923;-86
2021/12/31 02:39:49;;;;;;;;;;;11.90;99.90;;;;;;4920660;29;19930;-88
2021/12/31 02:42:15;;;;;;;;;;;11.90;99.90;;;;;;4917266;29;19929;-86
2021/12/31 02:44:42;;;;;;;;;;;12.10;99.90;;;;;;4917649;29;20013;-85
2021/12/31 02:47:08;;;;;;;;;;;11.80;99.90;;;;;;4917824;29;20434;-87
2021/12/31 02:49:37;;;;;;;;;;;11.90;99.90;;;;;;4917335;29;19922;-85
2021/12/31 02:52:04;;;;;;;;;;;11.90;99.90;;;;;;4934809;29;19930;-87
2021/12/31 02:54:34;;;;;;;;;;;11.90;99.90;;;;;;4917491;29;19957;-85
2021/12/31 02:57:00;;;;;;;;;;;11.80;99.90;;;;;;4933397;29;19978;-89
2021/12/31 02:59:26;;;;;;;;;;;11.90;99.90;;;;;;4917406;29;19926;-88
2021/12/31 03:01:52;;;;;;;;;;;11.80;99.90;;;;;;4917758;29;19923;-86
2021/12/31 03:04:23;;;;;;;;;;;11.90;99.90;;;;;;4933965;29;20286;-85
2021/12/31 03:06:49;;;;;;;;;;;11.90;99.90;;;;;;4919543;29;19926;-86
2021/12/31 03:09:15;;;;;;;;;;;11.90;99.90;;;;;;4917025;29;19926;-85
2021/12/31 03:12:01;;;;;;;;;;;11.90;99.90;;;;;;4918005;29;19923;-87
2021/12/31 03:33:02;;;;;;;;;;;11.20;99.90;;;;;;4901973;29;19923;-86
2021/12/31 03:49:38;;;;;;;;;;;11.60;99.90;;;;;;5175352;23;20062;-86
2021/12/31 03:52:03;;;;;;;;;;;12.00;99.90;;;;;;4906054;29;20009;-86
2021/12/31 03:54:29;;;;;;;;;;;12.00;99.90;;;;;;4908587;23;20003;-86
2021/12/31 03:56:54;;;;;;;;;;;12.00;99.90;;;;;;4899002;29;19923;-87
2021/12/31 03:59:20;;;;;;;;;;;12.00;99.90;;;;;;4897986;29;19947;-87
2021/12/31 04:14:32;;;;;;;;;;;12.10;99.90;;;;;;5760676;23;19923;-85
2021/12/31 04:16:58;;;;;;;;;;;12.00;99.90;;;;;;4901385;29;19934;-85
2021/12/31 04:19:24;;;;;;;;;;;12.10;99.90;;;;;;4900506;29;19923;-85
2021/12/31 04:41:47;;;;;;;;;;;13.10;99.90;;;;;;4913993;29;19998;-87
2021/12/31 04:49:56;;;;;;;;;;;12.10;99.90;;;;;;4896847;29;19923;-86
2021/12/31 04:52:21;;;;;;;;;;;12.00;99.90;;;;;;4881922;29;19946;-85
2021/12/31 04:54:50;;;;;;;;;;;12.00;99.90;;;;;;4881545;29;19924;-86
2021/12/31 04:57:20;;;;;;;;;;;12.00;99.90;;;;;;4882138;29;20280;-85
2021/12/31 04:59:46;;;;;;;;;;;11.90;99.90;;;;;;4881598;29;19923;-85
2021/12/31 05:02:11;;;;;;;;;;;11.90;99.90;;;;;;4880973;29;19924;-85
2021/12/31 05:04:37;;;;;;;;;;;12.00;99.90;;;;;;4879561;29;20635;-86
2021/12/31 05:07:03;;;;;;;;;;;12.10;99.90;;;;;;4881917;29;19927;-88
2021/12/31 05:09:28;;;;;;;;;;;12.10;99.90;;;;;;4880848;29;19927;-86
2021/12/31 05:11:54;;;;;;;;;;;12.00;99.90;;;;;;4883718;29;20030;-84
2021/12/31 05:26:18;;;;;;;;;;;11.50;99.90;;;;;;4895006;29;20364;-85
2021/12/31 05:35:32;;;;;;;;;;;11.80;99.90;;;;;;4897511;29;20343;-84
2021/12/31 05:48:05;;;;;;;;;;;11.10;99.90;;;;;;4894451;29;19966;-84
2021/12/31 05:50:34;;;;;;;;;;;11.80;99.90;;;;;;4880584;29;19923;-84
2021/12/31 05:53:00;;;;;;;;;;;11.90;99.90;;;;;;4892063;29;20016;-84
2021/12/31 05:55:31;;;;;;;;;;;11.90;99.90;;;;;;4880889;29;19923;-84
2021/12/31 05:58:02;;;;;;;;;;;12.30;99.90;;;;;;4877870;29;19927;-83
2021/12/31 06:00:28;;;;;;;;;;;11.90;99.90;;;;;;4880521;29;20022;-84
2021/12/31 06:02:56;;;;;;;;;;;11.90;99.90;;;;;;4879863;29;19919;-84
2021/12/31 06:05:25;;;;;;;;;;;12.00;99.90;;;;;;4879764;29;19931;-84
2021/12/31 06:07:51;;;;;;;;;;;12.00;99.90;;;;;;4883035;29;20026;-88
2021/12/31 06:10:17;;;;;;;;;;;12.60;99.90;;;;;;4896183;29;19932;-85
2021/12/31 06:12:43;;;;;;;;;;;11.90;99.90;;;;;;4880347;29;19950;-85
2021/12/31 06:15:09;;;;;;;;;;;12.40;99.90;;;;;;4880633;29;19919;-82
2021/12/31 06:17:36;;;;;;;;;;;11.90;99.90;;;;;;4895925;29;19923;-86
2021/12/31 06:20:03;;;;;;;;;;;11.80;99.90;;;;;;4881795;29;19923;-85
2021/12/31 06:22:29;;;;;;;;;;;11.70;99.90;;;;;;4879317;29;19931;-84
2021/12/31 06:24:55;;;;;;;;;;;11.70;99.90;;;;;;4891700;29;20457;-87
2021/12/31 06:27:20;;;;;;;;;;;11.70;99.90;;;;;;4879021;29;20017;-87
2021/12/31 06:29:46;;;;;;;;;;;11.60;99.90;;;;;;4879233;29;19923;-86
2021/12/31 06:32:11;;;;;;;;;;;11.60;99.90;;;;;;4880170;29;19930;-87
2021/12/31 06:34:37;;;;;;;;;;;11.50;99.90;;;;;;4880427;29;19934;-86
2021/12/31 06:37:02;;;;;;;;;;;11.40;99.90;;;;;;4878556;29;20006;-85
2021/12/31 06:39:28;;;;;;;;;;;11.40;99.90;;;;;;4878766;29;19979;-85
2021/12/31 06:41:54;;;;;;;;;;;11.30;99.90;;;;;;4879047;29;19923;-86
2021/12/31 06:44:22;;;;;;;;;;;11.40;99.90;;;;;;4879240;29;19979;-85
2021/12/31 06:46:51;;;;;;;;;;;11.30;99.90;;;;;;4895042;23;19923;-87
2021/12/31 06:49:16;;;;;;;;;;;11.30;99.90;;;;;;4898426;29;20029;-91
2021/12/31 06:54:17;;;;;;;;;;;11.20;99.90;;;;;;5014542;23;19930;-87
2021/12/31 06:56:42;;;;;;;;;;;11.30;99.90;;;;;;4892481;29;19927;-87
2021/12/31 06:59:08;;;;;;;;;;;11.20;99.90;;;;;;4893785;29;20112;-89
2021/12/31 07:01:33;;;;;;;;;;;11.20;99.90;;;;;;4894114;29;19923;-86
2021/12/31 07:03:59;;;;;;;;;;;11.20;99.90;;;;;;4892476;29;19924;-86
2021/12/31 07:06:24;;;;;;;;;;;11.20;99.90;;;;;;4899304;29;19975;-86
2021/12/31 07:08:50;;;;;;;;;;;11.10;99.90;;;;;;4890752;29;19979;-86
2021/12/31 07:11:22;;;;;;;;;;;11.00;99.90;;;;;;4890176;29;19932;-86
2021/12/31 07:13:50;;;;;;;;;;;11.00;99.90;;;;;;4885670;29;19923;-86
2021/12/31 07:16:16;;;;;;;;;;;11.10;99.90;;;;;;4884146;29;19970;-86
2021/12/31 07:18:45;;;;;;;;;;;11.10;99.90;;;;;;4885178;29;19973;-86
2021/12/31 08:45:00;;;;;;;;;;;11.60;99.90;;;;;;4903491;24;20014;-82
2021/12/31 08:47:25;;;;;;;;;;;11.40;99.90;;;;;;4880835;29;20010;-83
2021/12/31 08:49:51;;;;;;;;;;;11.60;99.90;;;;;;4881740;29;19962;-81
2021/12/31 08:52:16;;;;;;;;;;;11.30;99.90;;;;;;4881116;29;19924;-83
2021/12/31 08:54:42;;;;;;;;;;;11.30;99.90;;;;;;4880729;29;19930;-83
2021/12/31 08:57:16;;;;;;;;;;;11.30;99.90;;;;;;4881200;29;19982;-83
2021/12/31 08:59:42;;;;;;;;;;;11.40;99.90;;;;;;4894881;29;20407;-84
2021/12/31 09:02:08;;;;;;;;;;;12.50;99.90;;;;;;4880787;29;19966;-82
2021/12/31 09:04:37;;;;;;;;;;;11.30;99.90;;;;;;4880240;29;20738;-81
2021/12/31 09:13:22;;;;;;;;;;;11.30;99.90;;;;;;4881882;23;19931;-85
2021/12/31 09:19:47;;;;;;;;;;;10.40;99.90;;;;;;4856299;29;19963;-88
2021/12/31 09:22:39;;;;;;;;;;;10.50;99.90;;;;;;4833431;29;19928;-84
2021/12/31 09:25:05;;;;;;;;;;;10.90;99.90;;;;;;4834145;29;19923;-82
2021/12/31 09:27:31;;;;;;;;;;;11.40;99.90;;;;;;4858335;23;20694;-81
2021/12/31 09:29:56;;;;;;;;;;;11.20;99.90;;;;;;4878429;29;19927;-88
2021/12/31 09:32:22;;;;;;;;;;;11.20;99.90;;;;;;4894355;29;19924;-87
2021/12/31 09:34:48;;;;;;;;;;;11.20;99.90;;;;;;4878462;29;20396;-90
2021/12/31 09:37:14;;;;;;;;;;;11.50;99.90;;;;;;4877616;29;19972;-89
2021/12/31 09:39:40;;;;;;;;;;;11.20;99.90;;;;;;4877866;29;19971;-86
2021/12/31 09:42:07;;;;;;;;;;;11.10;99.90;;;;;;4875037;29;19986;-85
2021/12/31 09:44:32;;;;;;;;;;;11.10;99.90;;;;;;4877358;29;20307;-81
2021/12/31 09:46:58;;;;;;;;;;;11.10;99.90;;;;;;4878653;29;19927;-88
2021/12/31 09:49:24;;;;;;;;;;;11.10;99.90;;;;;;4878423;29;19930;-83
2021/12/31 09:51:50;;;;;;;;;;;11.10;99.90;;;;;;4879075;29;19928;-81
2021/12/31 09:54:21;;;;;;;;;;;11.10;99.90;;;;;;4878588;29;19968;-90
2021/12/31 09:56:47;;;;;;;;;;;11.10;99.90;;;;;;4880314;29;19930;-88
2021/12/31 09:59:13;;;;;;;;;;;11.10;99.90;;;;;;4875923;29;20741;-87
2021/12/31 10:01:48;;;;;;;;;;;11.10;99.90;;;;;;4878577;29;20034;-88
2021/12/31 10:04:20;;;;;;;;;;;11.10;99.90;;;;;;4875584;29;20299;-88
2021/12/31 10:07:24;;;;;;;;;;;11.10;99.90;;;;;;4893099;29;19923;-87
2021/12/31 10:10:03;;;;;;;;;;;11.00;99.90;;;;;;4862093;29;19927;-84
2021/12/31 10:12:50;;;;;;;;;;;11.00;99.90;;;;;;4859373;29;19932;-89
2021/12/31 10:15:17;;;;;;;;;;;11.10;99.90;;;;;;4873214;29;19924;-87
2021/12/31 10:17:43;;;;;;;;;;;11.00;99.90;;;;;;4894539;29;19923;-87
2021/12/31 10:20:09;;;;;;;;;;;11.00;99.90;;;;;;4876453;29;19927;-78
2021/12/31 10:22:34;;;;;;;;;;;11.00;99.90;;;;;;4877452;29;20396;-82
2021/12/31 10:25:00;;;;;;;;;;;11.00;99.90;;;;;;4892096;29;19955;-86
2021/12/31 10:27:25;;;;;;;;;;;11.00;99.90;;;;;;4873813;29;19931;-88
2021/12/31 10:29:57;;;;;;;;;;;12.10;99.90;;;;;;4879372;29;19933;-82
2021/12/31 10:32:24;;;;;;;;;;;11.10;99.90;;;;;;4875191;29;19931;-84
2021/12/31 10:34:50;;;;;;;;;;;11.10;99.90;;;;;;4876806;29;19976;-82
2021/12/31 10:37:17;;;;;;;;;;;11.10;99.90;;;;;;4876414;29;19963;-85
2021/12/31 10:39:44;;;;;;;;;;;11.10;99.90;;;;;;4873821;29;19935;-86
2021/12/31 10:42:10;;;;;;;;;;;11.10;99.90;;;;;;4876475;29;19924;-83
2021/12/31 10:44:46;;;;;;;;;;;11.00;99.90;;;;;;4876529;29;20395;-83
2021/12/31 10:47:29;;;;;;;;;;;10.90;99.90;;;;;;4878399;29;19923;-86
2021/12/31 10:50:00;;;;;;;;;;;10.90;99.90;;;;;;4875543;29;19924;-80
2021/12/31 10:52:29;;;;;;;;;;;10.90;99.90;;;;;;4876238;29;20376;-78
2021/12/31 10:55:18;;;;;;;;;;;10.80;99.90;;;;;;4891722;29;20059;-77
2021/12/31 10:57:45;;;;;;;;;;;10.70;99.90;;;;;;4877820;29;20303;-79
2021/12/31 11:00:11;;;;;;;;;;;10.70;99.90;;;;;;4876150;29;20023;-85
2021/12/31 11:02:37;;;;;;;;;;;10.70;99.90;;;;;;4877921;29;20026;-84
2021/12/31 11:05:03;;;;;;;;;;;10.70;99.90;;;;;;4876878;29;20384;-83
2021/12/31 11:07:29;;;;;;;;;;;10.60;99.90;;;;;;4875337;29;20026;-81
2021/12/31 11:09:56;;;;;;;;;;;10.60;99.90;;;;;;4876295;29;19924;-84
2021/12/31 11:12:21;;;;;;;;;;;10.60;99.90;;;;;;4873878;29;19924;-85
2021/12/31 11:14:48;;;;;;;;;;;10.60;99.90;;;;;;4875239;29;19935;-84
2021/12/31 11:17:13;;;;;;;;;;;10.70;99.90;;;;;;4874053;29;19969;-83
2021/12/31 11:19:43;;;;;;;;;;;10.60;99.90;;;;;;4878206;29;19977;-82
2021/12/31 11:22:09;;;;;;;;;;;10.60;99.90;;;;;;4873109;29;19977;-82
2021/12/31 11:24:37;;;;;;;;;;;10.60;99.90;;;;;;4876035;29;19972;-84
2021/12/31 11:27:21;;;;;;;;;;;10.70;99.90;;;;;;4881735;29;19923;-83
2021/12/31 11:29:47;;;;;;;;;;;10.70;99.90;;;;;;4878028;29;19959;-81
2021/12/31 11:32:12;;;;;;;;;;;10.80;99.90;;;;;;4878751;29;20358;-87
2021/12/31 11:34:38;;;;;;;;;;;10.70;99.90;;;;;;4896306;29;19949;-89
2021/12/31 11:37:03;;;;;;;;;;;10.70;99.90;;;;;;4896356;29;19943;-91
2021/12/31 11:39:38;;;;;;;;;;;10.70;99.90;;;;;;4898974;29;19927;-84
2021/12/31 11:42:11;;;;;;;;;;;10.70;99.90;;;;;;4882844;29;20303;-83
2021/12/31 11:44:57;;;;;;;;;;;10.70;99.90;;;;;;4895245;29;20378;-81
2021/12/31 11:47:28;;;;;;;;;;;10.70;99.90;;;;;;4879266;29;19923;-81
2021/12/31 11:50:16;;;;;;;;;;;10.70;99.90;;;;;;4881700;29;20014;-83
2021/12/31 11:53:01;;;;;;;;;;;10.70;99.90;;;;;;4881808;29;19931;-83
2021/12/31 11:55:27;;;;;;;;;;;10.70;99.90;;;;;;4896762;29;19924;-84
2021/12/31 11:57:52;;;;;;;;;;;10.60;99.90;;;;;;4898381;29;20327;-94
2021/12/31 12:00:25;;;;;;;;;;;10.60;99.90;;;;;;4882470;29;19934;-80
2021/12/31 12:02:50;;;;;;;;;;;10.70;99.90;;;;;;4881934;29;19939;-82
2021/12/31 12:05:25;;;;;;;;;;;10.70;99.90;;;;;;4882112;29;19923;-87
2021/12/31 12:07:52;;;;;;;;;;;11.50;99.90;;;;;;4882125;29;19983;-83
2021/12/31 12:10:19;;;;;;;;;;;10.60;99.90;;;;;;4880313;29;20019;-82
2021/12/31 12:12:50;;;;;;;;;;;10.70;99.90;;;;;;4881425;29;19924;-81
2021/12/31 12:15:19;;;;;;;;;;;10.60;99.90;;;;;;4898193;29;19946;-80
2021/12/31 12:17:45;;;;;;;;;;;9.90;99.90;;;;;;4882187;29;20426;-81
2021/12/31 12:20:13;;;;;;;;;;;10.60;99.90;;;;;;4881747;29;19962;-85
2021/12/31 12:22:38;;;;;;;;;;;10.60;99.90;;;;;;5729343;23;19914;-87
2021/12/31 12:28:45;;;;;;;;;;;9.40;99.90;;;;;;4866617;29;20013;-81
2021/12/31 12:59:25;;;;;;;;;;;9.70;99.90;;;;;;4914247;29;19928;-85
2021/12/31 13:02:32;;;;;;;;;;;;;;;;;;;;;
2021/12/31 13:12:50;;;;;;;;;;;10.30;99.90;;;;;;4805347;29;20046;-88
2021/12/31 13:15:16;;;;;;;;;;;10.40;99.90;;;;;;4790391;29;20019;-84
2021/12/31 13:18:00;;;;;;;;;;;10.30;99.90;;;;;;4788976;29;19972;-84
2021/12/31 13:21:00;;;;;;;;;;;9.80;99.90;;;;;;4786246;29;20301;-85
2021/12/31 13:23:26;;;;;;;;;;;9.70;99.90;;;;;;4795078;29;20011;-80
2021/12/31 13:26:19;;;;;;;;;;;10.40;99.90;;;;;;4788114;29;20023;-82
2021/12/31 13:32:32;;;;;;;;;;;10.40;99.90;;;;;;4800920;29;19959;-85
2021/12/31 13:35:03;;;;;;;;;;;11.10;99.90;;;;;;4792355;29;19926;-80
2021/12/31 13:38:06;;;;;;;;;;;9.60;99.90;;;;;;4863437;29;19935;-78
2021/12/31 13:56:36;;;;;;;;;;;10.60;99.90;;;;;;5334210;23;19943;-84
2021/12/31 13:59:14;;;;;;;;;;;10.70;99.90;;;;;;4868256;29;21853;-83
2021/12/31 14:28:26;;;;;;;;;;;10.70;99.90;;;;;;4873268;29;19924;-89
2021/12/31 14:31:18;;;;;;;;;;;11.00;99.90;;;;;;4878105;29;19924;-91
2021/12/31 14:37:12;;;;;;;;;;;11.00;99.90;;;;;;4885922;29;20427;-89
2021/12/31 14:40:08;;;;;;;;;;;10.80;99.90;;;;;;4868828;29;19924;-78
2021/12/31 14:42:34;;;;;;;;;;;10.20;99.90;;;;;;4870185;29;19956;-83
2021/12/31 14:44:59;;;;;;;;;;;12.10;99.90;;;;;;4871163;29;19923;-85
2021/12/31 14:47:25;;;;;;;;;;;11.10;99.90;;;;;;4871672;29;19958;-82
2021/12/31 14:49:50;;;;;;;;;;;11.10;99.90;;;;;;4870375;29;19947;-81
2021/12/31 14:52:21;;;;;;;;;;;11.00;99.90;;;;;;4873944;29;19936;-88
2021/12/31 14:54:56;;;;;;;;;;;10.90;99.90;;;;;;4875491;29;19930;-88
2021/12/31 14:57:22;;;;;;;;;;;10.80;99.90;;;;;;4873425;29;19927;-85
2021/12/31 14:59:48;;;;;;;;;;;10.70;99.90;;;;;;4877346;29;19924;-82
2021/12/31 15:02:14;;;;;;;;;;;10.70;99.90;;;;;;4874009;29;20007;-77
2021/12/31 15:04:39;;;;;;;;;;;10.70;99.90;;;;;;4873457;29;19924;-82
2021/12/31 15:07:10;;;;;;;;;;;10.60;99.90;;;;;;4877056;29;19979;-86
2021/12/31 15:09:37;;;;;;;;;;;10.60;99.90;;;;;;4876860;29;20308;-84
2021/12/31 15:12:02;;;;;;;;;;;10.50;99.90;;;;;;4873706;29;20214;-87
2021/12/31 15:14:28;;;;;;;;;;;10.50;99.90;;;;;;4877992;29;20548;-85
2021/12/31 15:16:53;;;;;;;;;;;10.50;99.90;;;;;;4878040;29;20495;-82
2021/12/31 15:19:19;;;;;;;;;;;10.50;99.90;;;;;;4876535;29;19934;-83
2021/12/31 15:21:44;;;;;;;;;;;10.50;99.90;;;;;;4879566;29;19923;-81
2021/12/31 15:24:10;;;;;;;;;;;10.50;99.90;;;;;;4879391;29;19931;-80
2021/12/31 15:26:40;;;;;;;;;;;10.50;99.90;;;;;;4878093;29;19930;-79
2021/12/31 15:29:07;;;;;;;;;;;10.60;99.90;;;;;;4878616;29;19933;-83
2021/12/31 15:31:32;;;;;;;;;;;10.60;99.90;;;;;;4877215;29;19924;-88
2021/12/31 15:33:57;;;;;;;;;;;10.50;99.90;;;;;;4876212;29;19923;-80
2021/12/31 15:36:23;;;;;;;;;;;10.50;99.90;;;;;;4877780;29;20367;-84
2021/12/31 15:38:49;;;;;;;;;;;10.50;99.90;;;;;;4876603;29;20022;-80
2021/12/31 15:41:14;;;;;;;;;;;10.50;99.90;;;;;;4879570;29;19930;-88
2021/12/31 15:43:43;;;;;;;;;;;10.50;99.90;;;;;;4872447;29;19924;-79
2021/12/31 15:46:09;;;;;;;;;;;10.40;99.90;;;;;;4875853;29;20406;-81
2021/12/31 15:48:34;;;;;;;;;;;10.70;99.90;;;;;;4877740;29;19924;-84
2021/12/31 15:51:00;;;;;;;;;;;10.50;99.90;;;;;;4878501;29;19984;-86
2021/12/31 15:53:26;;;;;;;;;;;10.60;99.90;;;;;;4875035;29;19924;-80
2021/12/31 15:55:51;;;;;;;;;;;10.50;99.90;;;;;;4880388;29;19971;-81
2021/12/31 15:58:17;;;;;;;;;;;10.40;99.90;;;;;;4877028;29;20281;-83
2021/12/31 16:00:42;;;;;;;;;;;10.50;99.90;;;;;;4879444;29;21362;-81
2021/12/31 16:03:08;;;;;;;;;;;10.50;99.90;;;;;;4878309;29;20687;-80
2021/12/31 16:05:33;;;;;;;;;;;10.50;99.90;;;;;;4872864;29;19930;-85
2021/12/31 16:07:59;;;;;;;;;;;10.50;99.90;;;;;;4879959;29;20375;-80
2021/12/31 16:10:24;;;;;;;;;;;10.40;99.90;;;;;;4879596;29;20050;-83
2021/12/31 17:01:15;;;;;;;;;;;9.10;99.90;;;;;;4874203;29;19934;-77
2021/12/31 17:03:43;;;;;;;;;;;9.90;99.90;;;;;;4871785;29;20396;-84
2021/12/31 17:30:06;;;;;;;;;;;10.30;99.90;;;;;;4858095;29;20379;-87
2021/12/31 17:39:07;;;;;;;;;;;9.40;99.90;;;;;;4869003;29;19952;-89
2021/12/31 17:41:57;;;;;;;;;;;9.80;99.90;;;;;;4871072;29;20029;-87
2021/12/31 17:47:45;;;;;;;;;;;9.40;99.90;;;;;;4868062;29;19923;-79
2021/12/31 17:57:13;;;;;;;;;;;9.50;99.90;;;;;;4868409;29;20387;-76
2021/12/31 18:00:10;;;;;;;;;;;10.40;99.90;;;;;;4864724;29;20384;-74
2021/12/31 18:02:35;;;;;;;;;;;10.30;99.90;;;;;;4868421;29;19951;-75
2021/12/31 18:05:01;;;;;;;;;;;11.00;99.90;;;;;;4866453;29;20365;-75
2021/12/31 18:10:48;;;;;;;;;;;9.70;99.90;;;;;;4867267;29;20401;-80
2021/12/31 18:13:14;;;;;;;;;;;9.70;99.90;;;;;;4869428;29;19961;-85
2021/12/31 18:15:40;;;;;;;;;;;9.70;99.90;;;;;;4867665;29;20304;-81
2021/12/31 18:18:06;;;;;;;;;;;9.70;99.90;;;;;;4865036;29;20019;-78
2021/12/31 18:20:37;;;;;;;;;;;9.70;99.90;;;;;;4868759;29;20368;-80
2021/12/31 18:23:05;;;;;;;;;;;9.70;99.90;;;;;;4866686;29;19928;-78
2021/12/31 18:25:31;;;;;;;;;;;9.60;99.90;;;;;;4958687;23;20387;-78
2021/12/31 18:27:57;;;;;;;;;;;9.60;99.90;;;;;;4868854;29;19928;-80
2021/12/31 18:30:22;;;;;;;;;;;9.60;99.90;;;;;;4869835;29;19924;-81
2021/12/31 18:32:49;;;;;;;;;;;9.60;99.90;;;;;;4868129;29;19928;-82
2021/12/31 18:35:14;;;;;;;;;;;9.60;99.90;;;;;;4869112;29;20291;-77
2021/12/31 18:37:40;;;;;;;;;;;9.60;99.90;;;;;;4866911;29;20007;-79
2021/12/31 18:40:06;;;;;;;;;;;10.00;99.90;;;;;;4867437;29;19924;-83
2021/12/31 18:42:31;;;;;;;;;;;9.50;99.90;;;;;;4868767;29;19924;-75
2021/12/31 18:44:57;;;;;;;;;;;9.50;99.90;;;;;;4868293;29;20269;-76
2021/12/31 18:47:35;;;;;;;;;;;9.50;99.90;;;;;;4865921;29;20385;-81
2021/12/31 18:50:03;;;;;;;;;;;9.50;99.90;;;;;;4867611;29;19923;-85
2021/12/31 18:52:29;;;;;;;;;;;9.50;99.90;;;;;;4869139;29;19935;-79
2021/12/31 18:54:54;;;;;;;;;;;9.50;99.90;;;;;;4872937;29;19924;-79
2021/12/31 18:57:23;;;;;;;;;;;9.50;99.90;;;;;;4869282;29;19959;-78
2021/12/31 18:59:56;;;;;;;;;;;9.60;99.90;;;;;;4870387;29;19954;-82
2021/12/31 19:02:22;;;;;;;;;;;9.60;99.90;;;;;;4872478;29;20026;-75
2021/12/31 19:04:47;;;;;;;;;;;9.70;99.90;;;;;;4869850;29;20006;-74
2021/12/31 19:07:16;;;;;;;;;;;9.70;99.90;;;;;;4875812;29;19928;-73
2021/12/31 19:09:42;;;;;;;;;;;10.20;99.90;;;;;;4872322;29;19938;-74
2021/12/31 19:12:09;;;;;;;;;;;9.70;99.90;;;;;;4871014;29;19923;-77
2021/12/31 19:14:35;;;;;;;;;;;9.70;99.90;;;;;;4869439;29;19928;-77
2021/12/31 19:17:06;;;;;;;;;;;9.70;99.90;;;;;;4869250;29;19931;-81
2021/12/31 19:19:32;;;;;;;;;;;9.70;99.90;;;;;;4871693;29;19924;-86
2021/12/31 19:31:43;;;;;;;;;;;9.50;99.90;;;;;;5335730;23;19936;-88
2021/12/31 19:49:51;;;;;;;;;;;9.70;99.90;;;;;;4869728;29;19912;-79
2021/12/31 19:55:52;;;;;;;;;;;9.90;99.90;;;;;;4867986;29;19921;-79
2021/12/31 19:58:26;;;;;;;;;;;9.90;99.90;;;;;;4850345;29;19924;-78
2021/12/31 20:01:04;;;;;;;;;;;9.30;99.90;;;;;;4852367;29;19924;-80
2021/12/31 20:03:30;;;;;;;;;;;10.00;99.90;;;;;;4864085;29;19931;-81
2021/12/31 20:05:55;;;;;;;;;;;10.10;99.90;;;;;;4870905;29;19924;-82
2021/12/31 20:08:21;;;;;;;;;;;10.50;99.90;;;;;;4854714;29;19979;-81
2021/12/31 20:10:46;;;;;;;;;;;10.10;99.90;;;;;;4850377;29;19978;-83
2021/12/31 20:13:12;;;;;;;;;;;10.10;99.90;;;;;;4850140;29;19931;-81
2021/12/31 20:15:37;;;;;;;;;;;10.10;99.90;;;;;;4856190;29;19954;-78
2021/12/31 20:18:04;;;;;;;;;;;10.20;99.90;;;;;;4850782;29;19924;-77
2021/12/31 20:20:34;;;;;;;;;;;10.20;99.90;;;;;;4855443;29;20026;-80
2021/12/31 20:23:00;;;;;;;;;;;10.20;99.90;;;;;;4853076;29;19932;-75
2021/12/31 20:25:26;;;;;;;;;;;10.20;99.90;;;;;;4852035;29;19930;-82
2021/12/31 20:27:52;;;;;;;;;;;10.20;99.90;;;;;;4848775;29;19924;-90
2021/12/31 20:30:18;;;;;;;;;;;10.70;99.90;;;;;;4854013;29;19968;-81
2021/12/31 20:32:44;;;;;;;;;;;10.30;99.90;;;;;;4855411;29;20006;-83
2021/12/31 20:35:10;;;;;;;;;;;10.30;99.90;;;;;;4852905;29;20297;-82
2021/12/31 20:37:36;;;;;;;;;;;10.30;99.90;;;;;;4871718;29;20022;-81
2021/12/31 20:40:03;;;;;;;;;;;10.30;99.90;;;;;;4852353;29;20002;-84
2021/12/31 20:42:28;;;;;;;;;;;10.30;99.90;;;;;;4847303;29;19976;-80
2021/12/31 20:44:54;;;;;;;;;;;10.30;99.90;;;;;;4854690;29;20351;-80
2021/12/31 20:47:19;;;;;;;;;;;10.30;99.90;;;;;;4853501;29;19982;-84
2021/12/31 20:49:45;;;;;;;;;;;10.30;99.90;;;;;;4855732;29;19924;-81
2021/12/31 20:52:10;;;;;;;;;;;10.30;99.90;;;;;;4854191;29;20399;-80
2021/12/31 20:54:36;;;;;;;;;;;10.30;99.90;;;;;;4866136;29;19935;-83
2021/12/31 20:57:02;;;;;;;;;;;10.30;99.90;;;;;;4853289;29;19931;-83
2021/12/31 20:59:30;;;;;;;;;;;10.30;99.90;;;;;;4853925;29;20051;-82
2021/12/31 21:01:59;;;;;;;;;;;10.30;99.90;;;;;;4833492;29;20361;-85
2021/12/31 21:04:24;;;;;;;;;;;10.30;99.90;;;;;;4851203;29;19927;-80
2021/12/31 21:06:50;;;;;;;;;;;10.30;99.90;;;;;;4850975;29;19928;-80
2021/12/31 21:09:15;;;;;;;;;;;10.30;99.90;;;;;;4853351;29;20359;-84
2021/12/31 21:11:41;;;;;;;;;;;11.20;99.90;;;;;;4849497;29;19932;-83
2021/12/31 21:14:07;;;;;;;;;;;10.30;99.90;;;;;;4848072;29;19924;-84
2021/12/31 21:16:33;;;;;;;;;;;10.30;99.90;;;;;;4857288;29;19956;-80
2021/12/31 21:18:59;;;;;;;;;;;10.30;99.90;;;;;;5220863;23;20383;-84
2021/12/31 21:21:25;;;;;;;;;;;10.30;99.90;;;;;;4892146;29;20471;-82
2021/12/31 21:23:53;;;;;;;;;;;10.30;99.90;;;;;;4880809;29;20006;-84
2021/12/31 21:26:19;;;;;;;;;;;10.20;99.90;;;;;;4881121;29;19931;-81
2021/12/31 21:28:45;;;;;;;;;;;10.30;99.90;;;;;;4880344;29;20291;-80
2021/12/31 21:31:10;;;;;;;;;;;10.20;99.90;;;;;;4881417;29;19934;-88
2021/12/31 21:33:41;;;;;;;;;;;10.20;99.90;;;;;;4881269;29;19929;-90
2021/12/31 21:36:07;;;;;;;;;;;10.20;99.90;;;;;;4881062;29;19926;-80
2021/12/31 21:38:33;;;;;;;;;;;10.10;99.90;;;;;;4896501;29;19932;-83
2021/12/31 21:40:58;;;;;;;;;;;10.10;99.90;;;;;;4880134;29;19931;-79
2021/12/31 21:43:24;;;;;;;;;;;10.20;99.90;;;;;;4897411;29;20018;-82
2021/12/31 21:45:49;;;;;;;;;;;10.20;99.90;;;;;;4880918;29;19931;-83